createdAt,value
2018-07-12T16:43:35.262Z,30.6
2018-07-12T16:44:25.325Z,30.6
2018-07-12T16:45:14.922Z,30.1
2018-07-12T16:46:05.449Z,29.8
2018-07-12T16:46:55.230Z,29.6
2018-07-12T16:47:45.633Z,29.4
2018-07-12T16:49:19.775Z,29.1
2018-07-12T16:50:10.030Z,29
2018-07-12T16:50:59.806Z,28.9
2018-07-12T16:51:49.624Z,28.6
2018-07-12T16:52:39.931Z,28.6
2018-07-12T16:53:30.292Z,28.5
2018-07-12T16:54:20.120Z,28.5
2018-07-12T16:55:10.434Z,28.5
2018-07-12T16:55:59.670Z,28.5
2018-07-12T16:56:50.009Z,28.6
2018-07-12T16:57:40.606Z,28.6
2018-07-12T16:58:30.388Z,28.6
2018-07-12T16:59:20.225Z,28.5
2018-07-12T17:00:10.251Z,28.3
2018-07-12T17:01:00.036Z,28.1
2018-07-12T17:01:50.386Z,28.1
2018-07-12T17:02:41.021Z,28.1
2018-07-12T17:03:31.063Z,27.9
2018-07-12T17:04:20.845Z,27.8
2018-07-12T17:05:11.179Z,27.6
2018-07-12T17:06:00.994Z,27.6
2018-07-12T17:06:51.364Z,27.7
2018-07-12T17:07:41.402Z,27.7
2018-07-12T17:08:31.513Z,27.6
2018-07-12T17:09:21.231Z,27.4
2018-07-12T17:10:11.282Z,27.5
2018-07-12T17:11:01.663Z,27.4
2018-07-12T17:11:51.422Z,27.5
2018-07-12T17:12:41.489Z,27.4
2018-07-12T17:13:31.545Z,27.3
2018-07-12T17:14:21.887Z,27.2
2018-07-12T17:15:11.408Z,27.3
2018-07-12T17:16:01.758Z,27.2
2018-07-12T17:16:51.805Z,27.2
2018-07-12T17:17:42.125Z,27.2
2018-07-12T17:18:31.927Z,27.2
2018-07-12T17:19:21.976Z,27.2
2018-07-12T17:20:12.078Z,27.1
2018-07-12T17:21:02.130Z,27.1
2018-07-12T17:21:52.172Z,27
2018-07-12T17:22:42.260Z,26.9
2018-07-12T17:23:32.384Z,27
2018-07-12T17:24:22.661Z,26.9
2018-07-12T17:25:12.175Z,26.9
2018-07-12T17:26:02.868Z,26.9
2018-07-12T17:26:52.580Z,26.9
2018-07-12T17:27:42.914Z,26.9
2018-07-12T17:28:32.975Z,26.8
2018-07-12T17:29:23.063Z,26.8
2018-07-12T17:30:12.839Z,26.8
2018-07-12T17:31:03.351Z,26.7
2018-07-12T17:31:53.230Z,26.6
2018-07-12T17:32:43.307Z,26.6
2018-07-12T17:33:33.312Z,26.6
2018-07-12T17:34:23.151Z,26.4
2018-07-12T17:35:13.485Z,26.6
2018-07-12T17:36:03.298Z,26.4
2018-07-12T17:36:53.619Z,26.3
2018-07-12T17:37:43.132Z,26.1
2018-07-12T17:38:33.767Z,26.1
2018-07-12T17:39:23.264Z,25.9
2018-07-12T17:40:13.901Z,25.9
2018-07-12T17:41:04.308Z,25.9
2018-07-12T17:41:54.018Z,25.8
2018-07-12T17:42:43.801Z,25.8
2018-07-12T17:43:34.151Z,25.8
2018-07-12T17:44:24.194Z,25.8
2018-07-12T17:45:14.254Z,25.7
2018-07-12T17:46:04.066Z,25.6
2018-07-12T17:46:54.405Z,25.7
2018-07-12T17:47:44.952Z,25.6
2018-07-12T17:48:34.534Z,25.6
2018-07-12T17:49:24.599Z,25.5
2018-07-12T17:50:14.364Z,25.4
2018-07-12T17:51:04.402Z,25.4
2018-07-12T17:51:54.824Z,25.3
2018-07-12T17:52:44.548Z,25.3
2018-07-12T17:53:34.878Z,25.4
2018-07-12T17:54:24.982Z,25.4
2018-07-12T17:55:15.019Z,25.3
2018-07-12T17:56:05.251Z,25.3
2018-07-12T17:56:55.167Z,25.2
2018-07-12T17:57:44.667Z,25.3
2018-07-12T17:58:35.293Z,25.1
2018-07-12T17:59:25.343Z,25.1
2018-07-12T18:00:15.404Z,24.9
2018-07-12T18:01:05.206Z,24.9
2018-07-12T18:01:55.558Z,24.9
2018-07-12T18:02:45.610Z,24.9
2018-07-12T18:03:35.689Z,24.9
2018-07-12T18:04:25.748Z,24.9
2018-07-12T18:05:16.444Z,24.9
2018-07-12T18:06:05.911Z,24.8
2018-07-12T18:06:55.920Z,24.8
2018-07-12T18:07:45.420Z,24.8
2018-07-12T18:08:35.789Z,24.8
2018-07-12T18:09:25.916Z,24.8
2018-07-12T18:10:16.246Z,24.8
2018-07-12T18:11:05.968Z,24.7
2018-07-12T18:11:56.046Z,24.6
2018-07-12T18:12:46.377Z,24.7
2018-07-12T18:13:36.230Z,24.6
2018-07-12T18:14:27.358Z,24.6
2018-07-12T18:15:16.588Z,24.7
2018-07-12T18:16:06.640Z,24.6
2018-07-12T18:16:56.725Z,24.6
2018-07-12T18:17:46.492Z,24.6
2018-07-12T18:18:36.810Z,24.6
2018-07-12T18:19:26.911Z,24.6
2018-07-12T18:20:16.949Z,24.5
2018-07-12T18:21:06.757Z,24.4
2018-07-12T18:21:58.474Z,24.4
2018-07-12T18:22:46.875Z,24.3
2018-07-12T18:23:37.210Z,24.3
2018-07-12T18:24:26.997Z,24.3
2018-07-12T18:25:17.060Z,24.3
2018-07-12T18:26:06.928Z,24.3
2018-07-12T18:26:57.210Z,24.3
2018-07-12T18:27:47.245Z,24.2
2018-07-12T18:28:37.301Z,24.2
2018-07-12T18:29:27.663Z,24.1
2018-07-12T18:30:17.721Z,24.1
2018-07-12T18:31:07.775Z,24.1
2018-07-12T18:31:57.845Z,24.1
2018-07-12T18:32:47.337Z,24
2018-07-12T18:33:37.996Z,23.9
2018-07-12T18:34:27.765Z,24
2018-07-12T18:35:18.353Z,24
2018-07-12T18:36:07.934Z,23.9
2018-07-12T18:36:58.243Z,23.9
2018-07-12T18:37:48.032Z,23.9
2018-07-12T18:38:38.377Z,23.7
2018-07-12T18:39:28.414Z,23.6
2018-07-12T18:40:18.214Z,23.5
2018-07-12T18:41:08.574Z,23.3
2018-07-12T18:41:58.604Z,23.2
2018-07-12T18:42:48.676Z,23
2018-07-12T18:43:39.440Z,22.9
2018-07-12T18:44:28.796Z,22.8
2018-07-12T18:45:18.671Z,22.7
2018-07-12T18:46:08.669Z,22.7
2018-07-12T18:46:59.004Z,22.8
2018-07-12T18:47:49.053Z,22.9
2018-07-12T18:48:39.140Z,23
2018-07-12T18:49:29.178Z,23
2018-07-12T18:50:19.001Z,22.9
2018-07-12T18:51:09.313Z,22.9
2018-07-12T18:51:59.382Z,22.9
2018-07-12T18:52:49.170Z,22.8
2018-07-12T18:53:39.509Z,22.8
2018-07-12T18:54:29.568Z,22.8
2018-07-12T18:55:19.424Z,22.7
2018-07-12T18:56:09.472Z,22.7
2018-07-12T18:56:59.831Z,22.8
2018-07-12T18:57:49.822Z,22.9
2018-07-12T18:58:39.660Z,22.9
2018-07-12T18:59:29.956Z,22.9
2018-07-12T19:00:20.024Z,22.9
2018-07-12T19:01:10.092Z,22.9
2018-07-12T19:02:00.179Z,22.9
2018-07-12T19:02:50.228Z,23.1
2018-07-12T19:03:40.264Z,23
2018-07-12T19:04:30.345Z,23
2018-07-12T19:05:20.501Z,23.1
2018-07-12T19:06:10.461Z,23
2018-07-12T19:07:00.572Z,22.9
2018-07-12T19:07:50.594Z,22.9
2018-07-12T19:08:41.051Z,22.9
2018-07-12T19:09:30.487Z,22.9
2018-07-12T19:10:20.832Z,22.9
2018-07-12T19:11:10.859Z,22.8
2018-07-12T19:12:00.984Z,22.7
2018-07-12T19:12:50.123Z,22.7
2018-07-12T19:13:41.047Z,22.8
2018-07-12T19:14:31.100Z,22.7
2018-07-12T19:15:21.851Z,22.7
2018-07-12T19:16:11.226Z,22.7
2018-07-12T19:17:01.310Z,22.6
2018-07-12T19:17:51.354Z,22.6
2018-07-12T19:18:41.438Z,22.7
2018-07-12T19:19:31.509Z,22.7
2018-07-12T19:20:21.606Z,22.7
2018-07-12T19:21:11.409Z,22.7
2018-07-12T19:22:01.694Z,22.7
2018-07-12T19:22:51.760Z,22.6
2018-07-12T19:23:41.835Z,22.6
2018-07-12T19:24:31.913Z,22.6
2018-07-12T19:25:21.941Z,22.6
2018-07-12T19:26:11.749Z,22.6
2018-07-12T19:27:02.115Z,22.5
2018-07-12T19:27:51.588Z,22.5
2018-07-12T19:28:41.652Z,22.4
2018-07-12T19:29:32.305Z,22.3
2018-07-12T19:30:22.065Z,22.2
2018-07-12T19:31:11.718Z,22.1
2018-07-12T19:32:01.991Z,22.1
2018-07-12T19:32:52.253Z,22.1
2018-07-12T19:33:43.188Z,22.1
2018-07-12T19:34:32.456Z,22.1
2018-07-12T19:35:22.758Z,22.2
2018-07-12T19:36:12.232Z,22.2
2018-07-12T19:37:02.853Z,22.3
2018-07-12T19:37:52.906Z,22.4
2018-07-12T19:38:43.008Z,22.4
2018-07-12T19:39:32.206Z,22.5
2018-07-12T19:40:23.100Z,22.6
2018-07-12T19:41:13.161Z,22.6
2018-07-12T19:42:03.239Z,22.6
2018-07-12T19:42:53.025Z,22.6
2018-07-12T19:43:43.163Z,22.6
2018-07-12T19:44:33.454Z,22.6
2018-07-12T19:45:23.494Z,22.6
2018-07-12T19:46:12.992Z,22.5
2018-07-12T19:47:03.610Z,22.5
2018-07-12T19:47:53.684Z,22.5
2018-07-12T19:48:43.726Z,22.4
2018-07-12T19:49:33.799Z,22.4
2018-07-12T19:50:23.858Z,22.3
2018-07-12T19:51:13.962Z,22.3
2018-07-12T19:52:03.733Z,22.2
2018-07-12T19:52:54.075Z,22.1
2018-07-12T19:53:44.105Z,22.2
2018-07-12T19:54:33.918Z,22.1
2018-07-12T19:55:24.381Z,22.1
2018-07-12T19:56:14.311Z,22.2
2018-07-12T19:57:03.627Z,22.2
2018-07-12T19:57:53.706Z,22.1
2018-07-12T19:58:44.052Z,22.1
2018-07-12T19:59:34.587Z,22.1
2018-07-12T20:00:24.379Z,22.1
2018-07-12T20:01:14.438Z,22.1
2018-07-12T20:02:04.766Z,22.1
2018-07-12T20:02:54.818Z,22
2018-07-12T20:03:45.235Z,22.1
2018-07-12T20:04:34.986Z,22.1
2018-07-12T20:05:24.771Z,22
2018-07-12T20:06:14.605Z,21.9
2018-07-12T20:07:05.153Z,21.8
2018-07-12T20:07:54.948Z,21.6
2018-07-12T20:08:45.272Z,21.3
2018-07-12T20:09:35.366Z,21.3
2018-07-12T20:10:24.860Z,21.2
2018-07-12T20:11:15.465Z,21.3
2018-07-12T20:12:05.253Z,21.3
2018-07-12T20:12:55.643Z,21.2
2018-07-12T20:13:45.655Z,21.2
2018-07-12T20:14:35.438Z,21.2
2018-07-12T20:15:25.515Z,21.2
2018-07-12T20:16:15.101Z,21.2
2018-07-12T20:17:05.167Z,21.2
2018-07-12T20:19:36.104Z,21.1
2018-07-12T20:20:25.915Z,21
2018-07-12T20:21:15.993Z,20.9
2018-07-12T20:22:06.028Z,20.9
2018-07-12T20:22:56.357Z,20.9
2018-07-12T20:23:46.445Z,20.8
2018-07-12T20:24:36.214Z,20.8
2018-07-12T20:25:27.157Z,20.7
2018-07-12T20:26:17.009Z,20.6
2018-07-12T20:27:06.682Z,20.6
2018-07-12T20:27:56.471Z,20.7
2018-07-12T20:28:46.792Z,20.7
2018-07-12T20:29:36.586Z,20.6
2018-07-12T20:30:26.944Z,20.6
2018-07-12T20:31:17.627Z,20.6
2018-07-12T20:32:06.809Z,20.6
2018-07-12T20:32:57.159Z,20.6
2018-07-12T20:33:47.256Z,20.6
2018-07-12T20:34:36.747Z,20.5
2018-07-12T20:35:26.509Z,20.4
2018-07-12T20:36:17.130Z,20.4
2018-07-12T20:37:07.463Z,20.4
2018-07-12T20:37:57.276Z,20.3
2018-07-12T20:38:47.068Z,20.3
2018-07-12T20:39:37.641Z,20.3
2018-07-12T20:40:27.713Z,20.3
2018-07-12T20:41:17.224Z,20.2
2018-07-12T20:42:07.857Z,20.2
2018-07-12T20:42:57.924Z,20.1
2018-07-12T20:43:47.969Z,20.1
2018-07-12T20:44:38.085Z,20
2018-07-12T20:45:28.107Z,20
2018-07-12T20:46:17.898Z,20
2018-07-12T20:47:08.215Z,20
2018-07-12T20:47:58.123Z,19.8
2018-07-12T20:48:47.903Z,19.7
2018-07-12T20:49:37.925Z,19.5
2018-07-12T20:50:28.211Z,19.4
2018-07-12T20:51:18.565Z,19.4
2018-07-12T20:52:08.345Z,19.3
2018-07-12T20:52:58.130Z,19.3
2018-07-12T20:53:48.742Z,19.4
2018-07-12T20:54:39.207Z,19.4
2018-07-12T20:55:28.853Z,19.4
2018-07-12T20:56:18.919Z,19.4
2018-07-12T20:57:08.975Z,19.4
2018-07-12T20:57:58.484Z,19.5
2018-07-12T20:58:49.120Z,19.5
2018-07-12T20:59:38.620Z,19.4
2018-07-12T21:00:28.986Z,19.4
2018-07-12T21:01:19.356Z,19.5
2018-07-12T21:02:09.435Z,19.5
2018-07-12T21:02:58.892Z,19.6
2018-07-12T21:03:49.259Z,19.5
2018-07-12T21:04:39.614Z,19.5
2018-07-12T21:05:29.071Z,19.4
2018-07-12T21:06:19.686Z,19.4
2018-07-12T21:07:09.493Z,19.4
2018-07-12T21:07:59.827Z,19.4
2018-07-12T21:08:49.913Z,19.4
2018-07-12T21:09:39.935Z,19.4
2018-07-12T21:10:30.028Z,19.5
2018-07-12T21:11:20.111Z,19.5
2018-07-12T21:12:10.133Z,19.5
2018-07-12T21:13:00.189Z,19.5
2018-07-12T21:13:50.253Z,19.5
2018-07-12T21:14:40.334Z,19.5
2018-07-12T21:15:30.268Z,19.6
2018-07-12T21:16:19.708Z,19.6
2018-07-12T21:17:09.782Z,19.7
2018-07-12T21:18:00.057Z,19.7
2018-07-12T21:18:50.361Z,19.7
2018-07-12T21:19:40.741Z,19.8
2018-07-12T21:20:30.784Z,19.8
2018-07-12T21:21:20.853Z,19.7
2018-07-12T21:22:10.912Z,19.7
2018-07-12T21:23:00.692Z,19.7
2018-07-12T21:23:50.842Z,19.7
2018-07-12T21:24:41.166Z,19.6
2018-07-12T21:25:30.868Z,19.6
2018-07-12T21:26:20.981Z,19.5
2018-07-12T21:27:10.745Z,19.5
2018-07-12T21:28:00.796Z,19.5
2018-07-12T21:28:50.871Z,19.4
2018-07-12T21:29:41.505Z,19.3
2018-07-12T21:30:31.664Z,19.3
2018-07-12T21:31:21.062Z,19.3
2018-07-12T21:32:11.444Z,19.3
2018-07-12T21:33:01.741Z,19.3
2018-07-12T21:33:51.810Z,19.3
2018-07-12T21:34:41.325Z,19.4
2018-07-12T21:35:31.656Z,19.4
2018-07-12T21:36:21.178Z,19.4
2018-07-12T21:37:11.606Z,19.4
2018-07-12T21:38:01.387Z,19.4
2018-07-12T21:38:51.438Z,19.4
2018-07-12T21:39:42.254Z,19.4
2018-07-12T21:40:32.320Z,19.5
2018-07-12T21:41:22.435Z,19.5
2018-07-12T21:42:12.193Z,19.4
2018-07-12T21:43:02.514Z,19.5
2018-07-12T21:43:52.561Z,19.4
2018-07-12T21:44:42.642Z,19.4
2018-07-12T21:45:32.677Z,19.4
2018-07-12T21:46:22.852Z,19.4
2018-07-12T21:47:12.618Z,19.4
2018-07-12T21:48:02.915Z,19.4
2018-07-12T21:48:52.946Z,19.4
2018-07-12T21:49:42.242Z,19.4
2018-07-12T21:50:32.599Z,19.4
2018-07-12T21:51:22.404Z,19.3
2018-07-12T21:52:12.731Z,19.3
2018-07-12T21:53:03.260Z,19.1
2018-07-12T21:53:53.347Z,19.1
2018-07-12T21:54:43.394Z,19.1
2018-07-12T21:55:33.464Z,19.1
2018-07-12T21:56:23.538Z,19.1
2018-07-12T21:57:13.330Z,19.1
2018-07-12T21:58:03.374Z,19.1
2018-07-12T21:58:53.737Z,19.1
2018-07-12T21:59:43.515Z,19.2
2018-07-12T22:00:33.844Z,19.1
2018-07-12T22:01:23.947Z,19.1
2018-07-12T22:02:13.699Z,19.1
2018-07-12T22:03:03.522Z,19.1
2018-07-12T22:03:54.106Z,19.1
2018-07-12T22:04:43.930Z,19.1
2018-07-12T22:05:33.975Z,19.1
2018-07-12T22:06:24.054Z,18.9
2018-07-12T22:07:14.384Z,18.8
2018-07-12T22:08:03.980Z,18.8
2018-07-12T22:09:44.271Z,18.6
2018-07-12T22:10:34.362Z,18.5
2018-07-12T22:11:24.409Z,18.6
2018-07-12T22:12:14.773Z,18.6
2018-07-12T22:13:04.829Z,18.5
2018-07-12T22:13:55.222Z,18.4
2018-07-12T22:14:44.956Z,18.4
2018-07-12T22:15:35.019Z,18.4
2018-07-12T22:16:25.081Z,18.3
2018-07-12T22:17:14.848Z,18.3
2018-07-12T22:18:04.917Z,18.3
2018-07-12T22:18:54.977Z,18.3
2018-07-12T22:19:45.330Z,18.3
2018-07-12T22:20:35.387Z,18.3
2018-07-12T22:21:25.167Z,18.3
2018-07-12T22:22:15.489Z,18.3
2018-07-12T22:23:05.271Z,18.3
2018-07-12T22:23:55.647Z,18.3
2018-07-12T22:24:45.158Z,18.3
2018-07-12T22:25:35.750Z,18.2
2018-07-12T22:26:25.278Z,18.2
2018-07-12T22:27:15.911Z,18.1
2018-07-12T22:28:05.754Z,18.1
2018-07-12T22:28:56.004Z,18.1
2018-07-12T22:29:46.067Z,18.1
2018-07-12T22:30:36.277Z,18.1
2018-07-12T22:31:26.201Z,18.1
2018-07-12T22:32:16.250Z,18.1
2018-07-12T22:33:06.361Z,18.1
2018-07-12T22:33:56.403Z,18.1
2018-07-12T22:34:46.481Z,18.1
2018-07-12T22:35:36.538Z,18.1
2018-07-12T22:36:26.630Z,18.1
2018-07-12T22:37:16.411Z,18.1
2018-07-12T22:38:06.434Z,18.2
2018-07-12T22:38:56.787Z,18.2
2018-07-12T22:39:46.857Z,18.2
2018-07-12T22:40:36.913Z,18.1
2018-07-12T22:41:26.418Z,18.2
2018-07-12T22:42:17.040Z,18.2
2018-07-12T22:43:06.850Z,18.2
2018-07-12T22:43:56.909Z,18.1
2018-07-12T22:44:46.738Z,18.1
2018-07-12T22:45:36.744Z,18.1
2018-07-12T22:46:27.375Z,18
2018-07-12T22:47:17.130Z,18
2018-07-12T22:48:07.504Z,17.9
2018-07-12T22:48:57.729Z,17.9
2018-07-12T22:49:47.135Z,17.9
2018-07-12T22:50:37.228Z,17.9
2018-07-12T22:51:27.281Z,17.9
2018-07-12T22:52:17.826Z,17.8
2018-07-12T22:53:07.348Z,17.9
2018-07-12T22:53:57.952Z,17.8
2018-07-12T22:54:47.273Z,17.8
2018-07-12T22:55:37.583Z,17.8
2018-07-12T22:56:27.641Z,17.8
2018-07-12T22:57:17.443Z,17.8
2018-07-12T22:58:08.269Z,17.9
2018-07-12T22:58:58.040Z,17.8
2018-07-12T22:59:48.393Z,17.9
2018-07-12T23:00:37.897Z,17.9
2018-07-12T23:01:28.229Z,17.9
2018-07-12T23:02:18.312Z,17.9
2018-07-12T23:03:08.650Z,17.9
2018-07-12T23:03:58.698Z,17.9
2018-07-12T23:04:48.495Z,17.9
2018-07-12T23:05:38.546Z,17.9
2018-07-12T23:06:28.121Z,17.9
2018-07-12T23:07:18.968Z,17.9
2018-07-12T23:08:08.450Z,18
2018-07-12T23:08:58.530Z,17.9
2018-07-12T23:09:48.606Z,18
2018-07-12T23:10:38.665Z,17.9
2018-07-12T23:11:29.065Z,17.9
2018-07-12T23:12:19.346Z,17.9
2018-07-12T23:13:09.397Z,17.9
2018-07-12T23:13:59.195Z,17.9
2018-07-12T23:14:49.530Z,17.8
2018-07-12T23:15:39.332Z,17.8
2018-07-12T23:16:29.691Z,17.8
2018-07-12T23:17:19.732Z,17.8
2018-07-12T23:18:09.837Z,17.9
2018-07-12T23:18:59.574Z,17.8
2018-07-12T23:19:49.928Z,17.9
2018-07-12T23:20:40.007Z,17.9
2018-07-12T23:21:30.063Z,17.9
2018-07-12T23:22:19.569Z,17.9
2018-07-12T23:23:09.332Z,18
2018-07-12T23:23:59.958Z,18
2018-07-12T23:24:50.965Z,18
2018-07-12T23:25:40.559Z,18.1
2018-07-12T23:26:30.158Z,18.2
2018-07-12T23:27:20.482Z,18.2
2018-07-12T23:28:10.544Z,18.2
2018-07-12T23:29:00.622Z,18.2
2018-07-12T23:29:50.702Z,18.2
2018-07-12T23:30:40.740Z,18.2
2018-07-12T23:31:30.551Z,18.1
2018-07-12T23:32:20.863Z,18.1
2018-07-12T23:33:10.936Z,18.1
2018-07-12T23:34:01.055Z,18.1
2018-07-12T23:34:50.775Z,18.1
2018-07-12T23:35:41.104Z,18.1
2018-07-12T23:36:31.171Z,18.1
2018-07-12T23:37:20.960Z,18.1
2018-07-12T23:38:11.026Z,18.1
2018-07-12T23:39:01.403Z,18.1
2018-07-12T23:39:50.873Z,18
2018-07-12T23:40:40.670Z,18
2018-07-12T23:41:31.285Z,17.9
2018-07-12T23:42:21.095Z,17.9
2018-07-12T23:43:11.708Z,17.9
2018-07-12T23:44:01.756Z,17.9
2018-07-12T23:44:51.559Z,17.9
2018-07-12T23:45:41.615Z,17.8
2018-07-12T23:46:31.653Z,17.8
2018-07-12T23:47:21.454Z,17.8
2018-07-12T23:48:11.554Z,17.8
2018-07-12T23:49:01.881Z,17.7
2018-07-12T23:49:51.925Z,17.6
2018-07-12T23:50:41.735Z,17.6
2018-07-12T23:51:32.364Z,17.5
2018-07-12T23:52:22.143Z,17.5
2018-07-12T23:53:12.193Z,17.5
2018-07-12T23:54:02.552Z,17.4
2018-07-12T23:54:52.582Z,17.6
2018-07-12T23:55:42.402Z,17.6
2018-07-12T23:56:32.442Z,17.6
2018-07-12T23:57:22.516Z,17.6
2018-07-12T23:58:12.007Z,17.5
2018-07-12T23:59:02.354Z,17.5
2018-07-12T23:59:53.048Z,17.5
